Terminal Aerodrome Forecast
Issued by NWS

Home | Current Version | Previous Version | Text Only | Print | Product List | Glossary On
Versions: 1 2 3 4 5 6 7 8 9 10 11 12 13 14 15 16 17 18 19 20 21 22 23
000
FTPA31 PHFO 221700
TAFMKK
TAF
PHMK 221733Z 2218/2318 05006KT P6SM FEW030
     FM221900 04012G18KT P6SM SCT030
     FM230500 04008KT P6SM FEW050=

USA.gov is the U.S. government's official web portal to all federal, state and local government web resources and services.